sensor_id;sensor_type;location;lat;lon;timestamp;pressure;altitude;pressure_sealevel;temperature;humidity
59043;BME280;44826;51.596;5.624;2023-04-01T00:01:34;99043.75;;;8.78;99.54
59043;BME280;44826;51.596;5.624;2023-04-01T00:03:59;99037.75;;;8.77;99.85
59043;BME280;44826;51.596;5.624;2023-04-01T00:06:27;99047.13;;;8.80;99.74
59043;BME280;44826;51.596;5.624;2023-04-01T00:08:52;99045.44;;;8.79;100.00
59043;BME280;44826;51.596;5.624;2023-04-01T00:11:18;99050.50;;;8.82;99.72
59043;BME280;44826;51.596;5.624;2023-04-01T00:13:43;99041.94;;;8.80;99.98
59043;BME280;44826;51.596;5.624;2023-04-01T00:16:09;99055.91;;;8.77;100.00
59043;BME280;44826;51.596;5.624;2023-04-01T00:18:35;99051.63;;;8.76;100.00
59043;BME280;44826;51.596;5.624;2023-04-01T00:21:01;99055.13;;;8.75;100.00
59043;BME280;44826;51.596;5.624;2023-04-01T00:23:26;99053.44;;;8.74;100.00
59043;BME280;44826;51.596;5.624;2023-04-01T00:25:51;99056.09;;;8.73;100.00
59043;BME280;44826;51.596;5.624;2023-04-01T00:28:19;99049.09;;;8.75;100.00
59043;BME280;44826;51.596;5.624;2023-04-01T00:30:45;99049.09;;;8.75;100.00
59043;BME280;44826;51.596;5.624;2023-04-01T00:33:11;99049.09;;;8.75;100.00
59043;BME280;44826;51.596;5.624;2023-04-01T00:35:37;99053.50;;;8.73;100.00
59043;BME280;44826;51.596;5.624;2023-04-01T00:38:03;99054.34;;;8.73;100.00
59043;BME280;44826;51.596;5.624;2023-04-01T00:40:30;99058.63;;;8.74;100.00
59043;BME280;44826;51.596;5.624;2023-04-01T00:42:56;99052.75;;;8.71;100.00
59043;BME280;44826;51.596;5.624;2023-04-01T00:45:31;99052.66;;;8.72;100.00
59043;BME280;44826;51.596;5.624;2023-04-01T00:48:00;99060.38;;;8.74;100.00
59043;BME280;44826;51.596;5.624;2023-04-01T00:50:28;99065.63;;;8.72;100.00
59043;BME280;44826;51.596;5.624;2023-04-01T00:52:54;99062.13;;;8.73;100.00
59043;BME280;44826;51.596;5.624;2023-04-01T00:55:21;99061.28;;;8.73;100.00
59043;BME280;44826;51.596;5.624;2023-04-01T00:57:49;99063.94;;;8.71;100.00
59043;BME280;44826;51.596;5.624;2023-04-01T01:00:16;99076.84;;;8.73;100.00
59043;BME280;44826;51.596;5.624;2023-04-01T01:02:45;99075.16;;;8.72;100.00
59043;BME280;44826;51.596;5.624;2023-04-01T01:05:14;99077.59;;;8.75;100.00
59043;BME280;44826;51.596;5.624;2023-04-01T01:08:10;99074.19;;;8.74;100.00
59043;BME280;44826;51.596;5.624;2023-04-01T01:10:42;99072.50;;;8.73;100.00
59043;BME280;44826;51.596;5.624;2023-04-01T01:15:45;99077.69;;;8.73;100.00
59043;BME280;44826;51.596;5.624;2023-04-01T01:26:54;99080.19;;;8.75;100.00
59043;BME280;44826;51.596;5.624;2023-04-01T01:29:58;99090.56;;;8.75;100.00
59043;BME280;44826;51.596;5.624;2023-04-01T01:33:03;99077.69;;;8.73;100.00
59043;BME280;44826;51.596;5.624;2023-04-01T01:35:37;99087.19;;;8.73;100.00
59043;BME280;44826;51.596;5.624;2023-04-01T01:38:07;99082.88;;;8.73;100.00
59043;BME280;44826;51.596;5.624;2023-04-01T01:40:34;99085.53;;;8.72;100.00
59043;BME280;44826;51.596;5.624;2023-04-01T01:43:06;99098.47;;;8.72;100.00
59043;BME280;44826;51.596;5.624;2023-04-01T01:45:35;99097.56;;;8.73;100.00
59043;BME280;44826;51.596;5.624;2023-04-01T01:48:04;99089.88;;;8.71;100.00
59043;BME280;44826;51.596;5.624;2023-04-01T01:50:32;99104.53;;;8.72;100.00
59043;BME280;44826;51.596;5.624;2023-04-01T01:53:05;99107.13;;;8.72;100.00
59043;BME280;44826;51.596;5.624;2023-04-01T01:55:40;99105.53;;;8.70;100.00
59043;BME280;44826;51.596;5.624;2023-04-01T01:58:25;99104.59;;;8.71;100.00
59043;BME280;44826;51.596;5.624;2023-04-01T02:00:58;99109.78;;;8.71;100.00
59043;BME280;44826;51.596;5.624;2023-04-01T02:03:27;99109.78;;;8.71;100.00
59043;BME280;44826;51.596;5.624;2023-04-01T02:05:56;99108.13;;;8.70;100.00
59043;BME280;44826;51.596;5.624;2023-04-01T02:08:45;99106.44;;;8.69;100.00
59043;BME280;44826;51.596;5.624;2023-04-01T02:11:15;99108.13;;;8.70;100.00
59043;BME280;44826;51.596;5.624;2023-04-01T02:13:52;99106.34;;;8.70;100.00
59043;BME280;44826;51.596;5.624;2023-04-01T02:16:27;99118.47;;;8.70;100.00
59043;BME280;44826;51.596;5.624;2023-04-01T02:18:55;99115.13;;;8.68;100.00
59043;BME280;44826;51.596;5.624;2023-04-01T02:21:23;99115.03;;;8.69;100.00
59043;BME280;44826;51.596;5.624;2023-04-01T02:23:50;99119.31;;;8.70;100.00
59043;BME280;44826;51.596;5.624;2023-04-01T02:26:17;99124.50;;;8.70;100.00
59043;BME280;44826;51.596;5.624;2023-04-01T02:28:43;99125.47;;;8.68;100.00
59043;BME280;44826;51.596;5.624;2023-04-01T02:31:10;99125.47;;;8.68;100.00
59043;BME280;44826;51.596;5.624;2023-04-01T02:33:38;99135.13;;;8.64;100.00
59043;BME280;44826;51.596;5.624;2023-04-01T02:36:04;99131.72;;;8.63;100.00
59043;BME280;44826;51.596;5.624;2023-04-01T02:38:30;99138.63;;;8.63;100.00
59043;BME280;44826;51.596;5.624;2023-04-01T02:40:58;99128.25;;;8.63;100.00
59043;BME280;44826;51.596;5.624;2023-04-01T02:43:24;99130.94;;;8.61;100.00
59043;BME280;44826;51.596;5.624;2023-04-01T02:45:49;99127.53;;;8.61;100.00
59043;BME280;44826;51.596;5.624;2023-04-01T02:48:14;99137.03;;;8.60;100.00
59043;BME280;44826;51.596;5.624;2023-04-01T02:50:40;99131.84;;;8.60;100.00
59043;BME280;44826;51.596;5.624;2023-04-01T02:53:05;99145.72;;;8.59;100.00
59043;BME280;44826;51.596;5.624;2023-04-01T02:55:32;99140.53;;;8.59;100.00
59043;BME280;44826;51.596;5.624;2023-04-01T02:57:57;99144.03;;;8.58;100.00
59043;BME280;44826;51.596;5.624;2023-04-01T03:00:22;99143.97;;;8.60;100.00
59043;BME280;44826;51.596;5.624;2023-04-01T03:02:48;99145.72;;;8.59;100.00
59043;BME280;44826;51.596;5.624;2023-04-01T03:05:13;99152.66;;;8.59;100.00
59043;BME280;44826;51.596;5.624;2023-04-01T03:07:39;99145.72;;;8.59;100.00
59043;BME280;44826;51.596;5.624;2023-04-01T03:10:05;99149.22;;;8.58;100.00
59043;BME280;44826;51.596;5.624;2023-04-01T03:12:31;99150.06;;;8.59;100.00
59043;BME280;44826;51.596;5.624;2023-04-01T03:14:56;99156.16;;;8.58;100.00
59043;BME280;44826;51.596;5.624;2023-04-01T03:17:21;99157.91;;;8.57;100.00
59043;BME280;44826;51.596;5.624;2023-04-01T03:19:46;99151.94;;;8.55;100.00
59043;BME280;44826;51.596;5.624;2023-04-01T03:22:12;99159.72;;;8.55;100.00
59043;BME280;44826;51.596;5.624;2023-04-01T03:24:37;99159.72;;;8.55;100.00
59043;BME280;44826;51.596;5.624;2023-04-01T03:27:02;99151.94;;;8.55;100.00
59043;BME280;44826;51.596;5.624;2023-04-01T03:29:28;99166.75;;;8.53;100.00
59043;BME280;44826;51.596;5.624;2023-04-01T03:31:53;99161.59;;;8.52;100.00
59043;BME280;44826;51.596;5.624;2023-04-01T03:34:18;99160.78;;;8.51;100.00
59043;BME280;44826;51.596;5.624;2023-04-01T03:36:44;99159.09;;;8.50;100.00
59043;BME280;44826;51.596;5.624;2023-04-01T03:39:09;99165.97;;;8.51;100.00
59043;BME280;44826;51.596;5.624;2023-04-01T03:41:36;99165.97;;;8.51;100.00
59043;BME280;44826;51.596;5.624;2023-04-01T03:44:02;99165.19;;;8.49;100.00
59043;BME280;44826;51.596;5.624;2023-04-01T03:46:27;99160.91;;;8.48;100.00
59043;BME280;44826;51.596;5.624;2023-04-01T03:48:52;99171.28;;;8.48;100.00
59043;BME280;44826;51.596;5.624;2023-04-01T03:51:18;99170.47;;;8.46;100.00
59043;BME280;44826;51.596;5.624;2023-04-01T03:53:43;99171.31;;;8.46;100.00
59043;BME280;44826;51.596;5.624;2023-04-01T03:56:08;99182.53;;;8.47;100.00
59043;BME280;44826;51.596;5.624;2023-04-01T03:58:34;99175.72;;;8.44;100.00
59043;BME280;44826;51.596;5.624;2023-04-01T04:01:00;99175.72;;;8.44;100.00
59043;BME280;44826;51.596;5.624;2023-04-01T04:03:25;99177.53;;;8.42;100.00
59043;BME280;44826;51.596;5.624;2023-04-01T04:05:51;99174.19;;;8.40;100.00
59043;BME280;44826;51.596;5.624;2023-04-01T04:08:16;99185.31;;;8.42;100.00
59043;BME280;44826;51.596;5.624;2023-04-01T04:10:42;99184.53;;;8.40;100.00
59043;BME280;44826;51.596;5.624;2023-04-01T04:13:08;99190.56;;;8.41;100.00
59043;BME280;44826;51.596;5.624;2023-04-01T04:15:33;99187.06;;;8.42;100.00
59043;BME280;44826;51.596;5.624;2023-04-01T04:17:58;99195.72;;;8.41;100.00
59043;BME280;44826;51.596;5.624;2023-04-01T04:20:24;99199.09;;;8.43;100.00
59043;BME280;44826;51.596;5.624;2023-04-01T04:22:49;99194.84;;;8.42;100.00
59043;BME280;44826;51.596;5.624;2023-04-01T04:25:14;99196.63;;;8.40;100.00
59043;BME280;44826;51.596;5.624;2023-04-01T04:27:40;99201.00;;;8.39;100.00
59043;BME280;44826;51.596;5.624;2023-04-01T04:30:06;99197.53;;;8.39;100.00
59043;BME280;44826;51.596;5.624;2023-04-01T04:32:32;99206.22;;;8.38;100.00
59043;BME280;44826;51.596;5.624;2023-04-01T04:34:57;99204.56;;;8.37;100.00
59043;BME280;44826;51.596;5.624;2023-04-01T04:37:23;99208.81;;;8.38;100.00
59043;BME280;44826;51.596;5.624;2023-04-01T04:39:48;99209.75;;;8.37;100.00
59043;BME280;44826;51.596;5.624;2023-04-01T04:42:13;99208.06;;;8.35;100.00
59043;BME280;44826;51.596;5.624;2023-04-01T04:44:39;99216.75;;;8.34;100.00
59043;BME280;44826;51.596;5.624;2023-04-01T04:47:04;99213.38;;;8.32;100.00
59043;BME280;44826;51.596;5.624;2023-04-01T04:49:30;99210.84;;;8.31;100.00
59043;BME280;44826;51.596;5.624;2023-04-01T04:51:55;99217.78;;;8.30;100.00
59043;BME280;44826;51.596;5.624;2023-04-01T04:54:20;99217.81;;;8.29;100.00
59043;BME280;44826;51.596;5.624;2023-04-01T04:56:46;99214.41;;;8.28;100.00
59043;BME280;44826;51.596;5.624;2023-04-01T04:59:11;99223.78;;;8.31;100.00
59043;BME280;44826;51.596;5.624;2023-04-01T05:01:37;99229.88;;;8.30;100.00
59043;BME280;44826;51.596;5.624;2023-04-01T05:04:03;99227.38;;;8.28;100.00
59043;BME280;44826;51.596;5.624;2023-04-01T05:06:28;99221.34;;;8.28;100.00
59043;BME280;44826;51.596;5.624;2023-04-01T05:08:55;99236.03;;;8.27;100.00
59043;BME280;44826;51.596;5.624;2023-04-01T05:11:20;99242.13;;;8.26;100.00
59043;BME280;44826;51.596;5.624;2023-04-01T05:13:46;99239.53;;;8.26;100.00
59043;BME280;44826;51.596;5.624;2023-04-01T05:16:15;99243.81;;;8.27;100.00
59043;BME280;44826;51.596;5.624;2023-04-01T05:18:41;99249.91;;;8.26;100.00
59043;BME280;44826;51.596;5.624;2023-04-01T05:21:08;99250.75;;;8.27;100.00
59043;BME280;44826;51.596;5.624;2023-04-01T05:23:34;99258.56;;;8.25;100.00
59043;BME280;44826;51.596;5.624;2023-04-01T05:26:07;99255.97;;;8.25;100.00
59043;BME280;44826;51.596;5.624;2023-04-01T05:28:33;99261.16;;;8.25;100.00
59043;BME280;44826;51.596;5.624;2023-04-01T05:30:59;99262.06;;;8.24;100.00
59043;BME280;44826;51.596;5.624;2023-04-01T05:33:26;99270.69;;;8.25;100.00
59043;BME280;44826;51.596;5.624;2023-04-01T05:35:53;99268.94;;;8.25;100.00
59043;BME280;44826;51.596;5.624;2023-04-01T05:38:18;99278.53;;;8.23;100.00
59043;BME280;44826;51.596;5.624;2023-04-01T05:40:43;99281.97;;;8.24;100.00
59043;BME280;44826;51.596;5.624;2023-04-01T05:43:08;99281.09;;;8.23;100.00
59043;BME280;44826;51.596;5.624;2023-04-01T05:45:34;99286.28;;;8.23;100.00
59043;BME280;44826;51.596;5.624;2023-04-01T05:47:59;99286.28;;;8.23;100.00
59043;BME280;44826;51.596;5.624;2023-04-01T05:50:25;99292.34;;;8.24;100.00
59043;BME280;44826;51.596;5.624;2023-04-01T05:52:50;99294.03;;;8.25;100.00
59043;BME280;44826;51.596;5.624;2023-04-01T05:55:15;99298.34;;;8.24;100.00
59043;BME280;44826;51.596;5.624;2023-04-01T05:57:41;99298.34;;;8.24;100.00
59043;BME280;44826;51.596;5.624;2023-04-01T06:00:06;99301.72;;;8.26;100.00
59043;BME280;44826;51.596;5.624;2023-04-01T06:02:32;99300.75;;;8.29;100.00
59043;BME280;44826;51.596;5.624;2023-04-01T06:05:27;99309.38;;;8.29;100.00
59043;BME280;44826;51.596;5.624;2023-04-01T06:07:59;99308.47;;;8.30;100.00
59043;BME280;44826;51.596;5.624;2023-04-01T06:10:55;99315.34;;;8.31;100.00
59043;BME280;44826;51.596;5.624;2023-04-01T06:22:16;99328.03;;;8.38;100.00
59043;BME280;44826;51.596;5.624;2023-04-01T06:27:58;99343.53;;;8.39;100.00
59043;BME280;44826;51.596;5.624;2023-04-01T06:30:30;99342.53;;;8.42;100.00
59043;BME280;44826;51.596;5.624;2023-04-01T06:33:24;99352.91;;;8.42;100.00
59043;BME280;44826;51.596;5.624;2023-04-01T06:41:35;99353.53;;;8.48;100.00
59043;BME280;44826;51.596;5.624;2023-04-01T06:47:02;99363.84;;;8.50;100.00
59043;BME280;44826;51.596;5.624;2023-04-01T06:49:41;99364.69;;;8.50;100.00
59043;BME280;44826;51.596;5.624;2023-04-01T06:52:19;99362.94;;;8.51;100.00
59043;BME280;44826;51.596;5.624;2023-04-01T06:54:50;99376.69;;;8.53;100.00
59043;BME280;44826;51.596;5.624;2023-04-01T06:57:29;99379.22;;;8.55;100.00
59043;BME280;44826;51.596;5.624;2023-04-01T06:59:57;99380.03;;;8.55;100.00
59043;BME280;44826;51.596;5.624;2023-04-01T07:02:35;99384.31;;;8.56;100.00
59043;BME280;44826;51.596;5.624;2023-04-01T07:05:04;99383.41;;;8.57;100.00
59043;BME280;44826;51.596;5.624;2023-04-01T07:07:38;99392.88;;;8.58;100.00
59043;BME280;44826;51.596;5.624;2023-04-01T07:10:14;99403.25;;;8.58;100.00
59043;BME280;44826;51.596;5.624;2023-04-01T07:12:50;99400.66;;;8.58;100.00
59043;BME280;44826;51.596;5.624;2023-04-01T07:15:20;99411.75;;;8.62;100.00
59043;BME280;44826;51.596;5.624;2023-04-01T07:17:52;99412.59;;;8.62;100.00
59043;BME280;44826;51.596;5.624;2023-04-01T07:20:23;99412.50;;;8.64;100.00
59043;BME280;44826;51.596;5.624;2023-04-01T07:22:52;99412.34;;;8.69;100.00
59043;BME280;44826;51.596;5.624;2023-04-01T07:25:35;99422.84;;;8.65;100.00
59043;BME280;44826;51.596;5.624;2023-04-01T07:28:11;99418.50;;;8.66;100.00
59043;BME280;44826;51.596;5.624;2023-04-01T07:33:30;99433.91;;;8.69;100.00
59043;BME280;44826;51.596;5.624;2023-04-01T07:36:03;99427.06;;;8.68;100.00
59043;BME280;44826;51.596;5.624;2023-04-01T07:52:04;99460.31;;;8.79;100.00
59043;BME280;44826;51.596;5.624;2023-04-01T07:54:38;99456.75;;;8.81;100.00
59043;BME280;44826;51.596;5.624;2023-04-01T07:57:32;99467.88;;;8.85;100.00
59043;BME280;44826;51.596;5.624;2023-04-01T08:05:26;99467.94;;;9.04;100.00
59043;BME280;44826;51.596;5.624;2023-04-01T08:08:03;99485.13;;;9.07;100.00
59043;BME280;44826;51.596;5.624;2023-04-01T08:10:46;99485.84;;;9.10;100.00
59043;BME280;44826;51.596;5.624;2023-04-01T08:13:40;99481.44;;;9.13;100.00
59043;BME280;44826;51.596;5.624;2023-04-01T08:18:52;99483.78;;;9.19;100.00
59043;BME280;44826;51.596;5.624;2023-04-01T08:21:25;99483.78;;;9.19;100.00
59043;BME280;44826;51.596;5.624;2023-04-01T08:23:55;99493.19;;;9.21;100.00
59043;BME280;44826;51.596;5.624;2023-04-01T08:26:37;99496.41;;;9.26;100.00
59043;BME280;44826;51.596;5.624;2023-04-01T08:29:18;99504.22;;;9.26;100.00
59043;BME280;44826;51.596;5.624;2023-04-01T08:31:59;99510.41;;;9.22;100.00
59043;BME280;44826;51.596;5.624;2023-04-01T08:34:34;99510.56;;;9.19;100.00
59043;BME280;44826;51.596;5.624;2023-04-01T08:37:21;99516.00;;;9.13;100.00
59043;BME280;44826;51.596;5.624;2023-04-01T08:39:51;99513.50;;;9.11;100.00
59043;BME280;44826;51.596;5.624;2023-04-01T08:54:33;99535.47;;;9.03;100.00
59043;BME280;44826;51.596;5.624;2023-04-01T09:06:05;99552.44;;;9.10;100.00
59043;BME280;44826;51.596;5.624;2023-04-01T09:09:28;99560.22;;;9.10;100.00
59043;BME280;44826;51.596;5.624;2023-04-01T09:17:04;99578.78;;;9.01;100.00
59043;BME280;44826;51.596;5.624;2023-04-01T09:19:47;99581.28;;;9.02;100.00
59043;BME280;44826;51.596;5.624;2023-04-01T09:28:33;99595.97;;;9.03;100.00
59043;BME280;44826;51.596;5.624;2023-04-01T09:31:15;99592.53;;;9.03;100.00
59043;BME280;44826;51.596;5.624;2023-04-01T09:34:15;99598.50;;;9.05;100.00
59043;BME280;44826;51.596;5.624;2023-04-01T09:36:49;99596.69;;;9.07;100.00
59043;BME280;44826;51.596;5.624;2023-04-01T09:42:05;99602.66;;;9.09;100.00
59043;BME280;44826;51.596;5.624;2023-04-01T09:44:41;99612.91;;;9.12;100.00
59043;BME280;44826;51.596;5.624;2023-04-01T09:47:23;99603.25;;;9.16;100.00
59043;BME280;44826;51.596;5.624;2023-04-01T09:50:16;99614.53;;;9.15;100.00
59043;BME280;44826;51.596;5.624;2023-04-01T09:52:49;99617.97;;;9.15;100.00
59043;BME280;44826;51.596;5.624;2023-04-01T10:01:10;99622.56;;;9.31;100.00
59043;BME280;44826;51.596;5.624;2023-04-01T10:06:46;99631.06;;;9.34;100.00
59043;BME280;44826;51.596;5.624;2023-04-01T10:24:14;99646.16;;;9.47;100.00
59043;BME280;44826;51.596;5.624;2023-04-01T10:27:10;99646.69;;;9.55;100.00
59043;BME280;44826;51.596;5.624;2023-04-01T10:30:05;99644.63;;;9.63;100.00
59043;BME280;44826;51.596;5.624;2023-04-01T10:38:19;99659.09;;;9.69;100.00
59043;BME280;44826;51.596;5.624;2023-04-01T10:41:08;99653.78;;;9.72;100.00
59043;BME280;44826;51.596;5.624;2023-04-01T10:50:33;99672.72;;;9.74;100.00
59043;BME280;44826;51.596;5.624;2023-04-01T10:55:54;99671.22;;;9.68;100.00
59043;BME280;44826;51.596;5.624;2023-04-01T11:01:36;99673.91;;;9.67;100.00
59043;BME280;44826;51.596;5.624;2023-04-01T11:27:22;99701.56;;;9.68;100.00
59043;BME280;44826;51.596;5.624;2023-04-01T11:32:53;99709.25;;;9.71;100.00
59043;BME280;44826;51.596;5.624;2023-04-01T11:38:01;99710.03;;;9.73;100.00
59043;BME280;44826;51.596;5.624;2023-04-01T11:41:19;99714.03;;;9.80;100.00
59043;BME280;44826;51.596;5.624;2023-04-01T11:46:23;99724.91;;;9.90;100.00
59043;BME280;44826;51.596;5.624;2023-04-01T11:54:40;99738.25;;;10.03;99.80
59043;BME280;44826;51.596;5.624;2023-04-01T11:57:34;99729.78;;;9.98;100.00
59043;BME280;44826;51.596;5.624;2023-04-01T12:00:21;99735.66;;;10.03;99.90
59043;BME280;44826;51.596;5.624;2023-04-01T12:06:02;99738.06;;;10.08;99.45
59043;BME280;44826;51.596;5.624;2023-04-01T12:08:49;99757.84;;;10.10;99.20
59043;BME280;44826;51.596;5.624;2023-04-01T12:14:17;99754.34;;;10.11;99.29
59043;BME280;44826;51.596;5.624;2023-04-01T12:19:47;99764.50;;;10.17;98.90
59043;BME280;44826;51.596;5.624;2023-04-01T12:22:41;99771.13;;;10.25;99.48
59043;BME280;44826;51.596;5.624;2023-04-01T12:28:03;99773.72;;;10.25;99.21
59043;BME280;44826;51.596;5.624;2023-04-01T12:41:29;99785.81;;;10.05;99.70
59043;BME280;44826;51.596;5.624;2023-04-01T12:47:45;99798.97;;;10.00;99.36
59043;BME280;44826;51.596;5.624;2023-04-01T13:10:11;99822.00;;;9.87;100.00
59043;BME280;44826;51.596;5.624;2023-04-01T13:15:37;99827.25;;;9.86;100.00
59043;BME280;44826;51.596;5.624;2023-04-01T13:18:21;99843.59;;;9.90;99.94
59043;BME280;44826;51.596;5.624;2023-04-01T13:23:37;99836.81;;;9.85;100.00
59043;BME280;44826;51.596;5.624;2023-04-01T13:26:24;99842.91;;;9.84;100.00
59043;BME280;44826;51.596;5.624;2023-04-01T13:31:36;99850.69;;;9.84;100.00
59043;BME280;44826;51.596;5.624;2023-04-01T13:34:16;99840.97;;;9.90;100.00
59043;BME280;44826;51.596;5.624;2023-04-01T13:42:24;99850.31;;;9.94;100.00
59043;BME280;44826;51.596;5.624;2023-04-01T13:48:10;99857.69;;;9.82;100.00
59043;BME280;44826;51.596;5.624;2023-04-01T13:53:51;99866.63;;;9.75;100.00
59043;BME280;44826;51.596;5.624;2023-04-01T13:59:59;99870.25;;;9.71;100.00
59043;BME280;44826;51.596;5.624;2023-04-01T14:05:49;99882.34;;;9.72;100.00
59043;BME280;44826;51.596;5.624;2023-04-01T14:11:45;99887.66;;;9.69;100.00
59043;BME280;44826;51.596;5.624;2023-04-01T14:17:21;99885.09;;;9.67;100.00
59043;BME280;44826;51.596;5.624;2023-04-01T14:26:22;99898.38;;;9.60;100.00
59043;BME280;44826;51.596;5.624;2023-04-01T14:28:59;99902.66;;;9.61;100.00
59043;BME280;44826;51.596;5.624;2023-04-01T14:31:43;99905.16;;;9.64;100.00
59043;BME280;44826;51.596;5.624;2023-04-01T14:43:21;99910.84;;;9.74;100.00
59043;BME280;44826;51.596;5.624;2023-04-01T14:46:22;99915.31;;;9.70;100.00
59043;BME280;44826;51.596;5.624;2023-04-01T14:48:51;99924.84;;;9.69;100.00
59043;BME280;44826;51.596;5.624;2023-04-01T14:51:28;99921.34;;;9.70;100.00
59043;BME280;44826;51.596;5.624;2023-04-01T14:54:04;99923.75;;;9.75;100.00
59043;BME280;44826;51.596;5.624;2023-04-01T14:56:41;99929.72;;;9.79;100.00
59043;BME280;44826;51.596;5.624;2023-04-01T14:59:10;99930.66;;;9.76;100.00
59043;BME280;44826;51.596;5.624;2023-04-01T15:01:51;99930.66;;;9.76;100.00
59043;BME280;44826;51.596;5.624;2023-04-01T15:07:21;99931.56;;;9.75;100.00
59043;BME280;44826;51.596;5.624;2023-04-01T15:10:31;99941.19;;;9.73;100.00
59043;BME280;44826;51.596;5.624;2023-04-01T15:24:20;99960.78;;;9.56;100.00
59043;BME280;44826;51.596;5.624;2023-04-01T15:37:44;99972.84;;;9.59;100.00
59043;BME280;44826;51.596;5.624;2023-04-01T15:40:29;99973.56;;;9.63;100.00
59043;BME280;44826;51.596;5.624;2023-04-01T15:46:09;99984.03;;;9.61;100.00
59043;BME280;44826;51.596;5.624;2023-04-01T15:48:49;99977.16;;;9.59;100.00
59043;BME280;44826;51.596;5.624;2023-04-01T15:51:42;99984.97;;;9.59;100.00
59043;BME280;44826;51.596;5.624;2023-04-01T15:54:23;99989.16;;;9.63;100.00
59043;BME280;44826;51.596;5.624;2023-04-01T16:03:02;99993.53;;;9.61;100.00
59043;BME280;44826;51.596;5.624;2023-04-01T16:14:28;100006.44;;;9.64;100.00
59043;BME280;44826;51.596;5.624;2023-04-01T16:17:05;100010.66;;;9.66;100.00
59043;BME280;44826;51.596;5.624;2023-04-01T16:20:12;100012.34;;;9.67;100.00
59043;BME280;44826;51.596;5.624;2023-04-01T16:22:58;100011.53;;;9.67;100.00
59043;BME280;44826;51.596;5.624;2023-04-01T16:31:00;100014.94;;;9.67;100.00
59043;BME280;44826;51.596;5.624;2023-04-01T16:35:59;100032.19;;;9.70;100.00
59043;BME280;44826;51.596;5.624;2023-04-01T16:38:37;100026.19;;;9.68;100.00
59043;BME280;44826;51.596;5.624;2023-04-01T16:43:56;100038.38;;;9.66;100.00
59043;BME280;44826;51.596;5.624;2023-04-01T16:46:38;100041.09;;;9.63;100.00
59043;BME280;44826;51.596;5.624;2023-04-01T16:52:29;100047.34;;;9.57;100.00
59043;BME280;44826;51.596;5.624;2023-04-01T17:11:00;100086.28;;;9.57;100.00
59043;BME280;44826;51.596;5.624;2023-04-01T17:24:35;100112.34;;;9.55;100.00
59043;BME280;44826;51.596;5.624;2023-04-01T17:38:40;100144.63;;;9.47;100.00
59043;BME280;44826;51.596;5.624;2023-04-01T17:41:16;100149.78;;;9.48;100.00
59043;BME280;44826;51.596;5.624;2023-04-01T17:49:38;100175.91;;;9.42;100.00
59043;BME280;44826;51.596;5.624;2023-04-01T17:52:17;100175.13;;;9.40;100.00
59043;BME280;44826;51.596;5.624;2023-04-01T17:58:02;100189.06;;;9.37;100.00
59043;BME280;44826;51.596;5.624;2023-04-01T18:03:50;100201.22;;;9.35;100.00
59043;BME280;44826;51.596;5.624;2023-04-01T18:06:19;100209.06;;;9.34;100.00
59043;BME280;44826;51.596;5.624;2023-04-01T18:14:03;100230.00;;;9.27;100.00
59043;BME280;44826;51.596;5.624;2023-04-01T18:22:23;100250.13;;;9.21;100.00
59043;BME280;44826;51.596;5.624;2023-04-01T18:25:19;100251.88;;;9.20;100.00
59043;BME280;44826;51.596;5.624;2023-04-01T18:27:50;100256.16;;;9.21;100.00
59043;BME280;44826;51.596;5.624;2023-04-01T18:32:53;100278.97;;;9.10;100.00
59043;BME280;44826;51.596;5.624;2023-04-01T18:38:28;100298.97;;;9.06;100.00
59043;BME280;44826;51.596;5.624;2023-04-01T18:41:14;100301.63;;;9.05;100.00
59043;BME280;44826;51.596;5.624;2023-04-01T18:46:54;100319.88;;;9.02;100.00
59043;BME280;44826;51.596;5.624;2023-04-01T18:49:39;100315.66;;;8.98;100.00
59043;BME280;44826;51.596;5.624;2023-04-01T18:52:17;100326.09;;;8.94;100.00
59043;BME280;44826;51.596;5.624;2023-04-01T18:57:53;100341.03;;;8.86;100.00
59043;BME280;44826;51.596;5.624;2023-04-01T19:00:28;100342.84;;;8.83;100.00
59043;BME280;44826;51.596;5.624;2023-04-01T19:05:35;100357.66;;;8.79;100.00
59043;BME280;44826;51.596;5.624;2023-04-01T19:11:07;100378.28;;;8.84;100.00
59043;BME280;44826;51.596;5.624;2023-04-01T19:13:50;100380.84;;;8.85;100.00
59043;BME280;44826;51.596;5.624;2023-04-01T19:21:47;100402.78;;;8.72;100.00
59043;BME280;44826;51.596;5.624;2023-04-01T19:30:05;100412.72;;;8.54;100.00
59043;BME280;44826;51.596;5.624;2023-04-01T19:35:26;100429.28;;;8.47;100.00
59043;BME280;44826;51.596;5.624;2023-04-01T19:40:38;100426.75;;;8.45;100.00
59043;BME280;44826;51.596;5.624;2023-04-01T19:43:39;100438.91;;;8.42;100.00
59043;BME280;44826;51.596;5.624;2023-04-01T19:51:25;100456.44;;;8.30;100.00
59043;BME280;44826;51.596;5.624;2023-04-01T19:54:14;100459.09;;;8.27;100.00
59043;BME280;44826;51.596;5.624;2023-04-01T19:56:54;100469.53;;;8.24;100.00
59043;BME280;44826;51.596;5.624;2023-04-01T20:04:53;100480.06;;;8.16;100.00
59043;BME280;44826;51.596;5.624;2023-04-01T20:07:37;100482.66;;;8.18;100.00
59043;BME280;44826;51.596;5.624;2023-04-01T20:10:10;100499.06;;;8.17;100.00
59043;BME280;44826;51.596;5.624;2023-04-01T20:16:06;100510.31;;;8.16;100.00
59043;BME280;44826;51.596;5.624;2023-04-01T20:18:48;100516.44;;;8.12;100.00
59043;BME280;44826;51.596;5.624;2023-04-01T20:21:32;100524.38;;;8.04;100.00
59043;BME280;44826;51.596;5.624;2023-04-01T20:24:14;100525.22;;;8.04;100.00
59043;BME280;44826;51.596;5.624;2023-04-01T20:26:50;100542.56;;;8.01;100.00
59043;BME280;44826;51.596;5.624;2023-04-01T20:32:12;100550.44;;;7.96;100.00
59043;BME280;44826;51.596;5.624;2023-04-01T20:34:49;100555.69;;;7.93;100.00
59043;BME280;44826;51.596;5.624;2023-04-01T20:37:29;100557.47;;;7.89;100.00
59043;BME280;44826;51.596;5.624;2023-04-01T20:40:26;100559.09;;;7.95;100.00
59043;BME280;44826;51.596;5.624;2023-04-01T20:43:03;100561.75;;;7.92;100.00
59043;BME280;44826;51.596;5.624;2023-04-01T20:45:56;100571.16;;;7.95;100.00